createdAt,value
2023-11-23T00:00:44.041Z,67.75
2023-11-23T00:03:13.287Z,67.53
2023-11-23T00:05:42.228Z,67.18
2023-11-23T00:08:12.889Z,67.00
2023-11-23T00:10:42.333Z,66.89
2023-11-23T00:13:12.530Z,66.59
2023-11-23T00:15:41.872Z,66.82
2023-11-23T00:18:13.559Z,67.09
2023-11-23T00:20:42.502Z,67.12
2023-11-23T00:23:11.268Z,67.04
2023-11-23T00:25:40.345Z,66.73
2023-11-23T00:28:19.624Z,66.75
2023-11-23T00:30:48.915Z,67.05
2023-11-23T00:33:17.969Z,67.21
2023-11-23T00:35:46.706Z,67.32
2023-11-23T00:38:17.406Z,67.36
2023-11-23T00:40:46.241Z,67.50
2023-11-23T00:43:16.866Z,67.45
2023-11-23T00:45:45.940Z,67.16
2023-11-23T00:48:14.864Z,66.89
2023-11-23T00:50:53.082Z,66.93
2023-11-23T00:53:17.938Z,66.35
2023-11-23T00:55:47.034Z,65.95
2023-11-23T00:58:15.964Z,65.68
2023-11-23T01:00:45.101Z,65.70
2023-11-23T01:03:14.291Z,65.63
2023-11-23T01:05:59.124Z,65.37
2023-11-23T01:08:17.045Z,65.23
2023-11-23T01:10:47.152Z,64.66
2023-11-23T01:13:16.257Z,64.65
2023-11-23T01:15:46.038Z,64.53
2023-11-23T01:18:15.720Z,63.68
2023-11-23T01:20:45.170Z,63.04
2023-11-23T01:23:14.372Z,62.97
2023-11-23T01:25:44.095Z,62.91
2023-11-23T01:28:13.419Z,63.02
2023-11-23T01:30:43.671Z,63.15
2023-11-23T01:33:13.097Z,63.20
2023-11-23T01:35:42.115Z,63.41
2023-11-23T01:38:10.914Z,63.38
2023-11-23T01:40:44.932Z,63.07
2023-11-23T01:43:45.466Z,63.33
2023-11-23T01:46:02.079Z,63.67
2023-11-23T01:48:32.209Z,63.82
2023-11-23T01:51:06.175Z,63.89
2023-11-23T01:53:35.366Z,63.91
2023-11-23T01:56:05.172Z,63.72
2023-11-23T01:58:34.179Z,63.88
2023-11-23T02:01:03.330Z,64.15
2023-11-23T02:03:32.612Z,64.26
2023-11-23T02:06:01.185Z,64.12
2023-11-23T02:08:29.964Z,64.15
2023-11-23T02:10:59.474Z,64.29
2023-11-23T02:13:27.857Z,64.52
2023-11-23T02:15:56.366Z,64.68
2023-11-23T02:18:24.920Z,64.57
2023-11-23T02:20:53.407Z,64.59
2023-11-23T02:23:21.784Z,64.42
2023-11-23T02:25:50.252Z,64.53
2023-11-23T02:28:19.187Z,64.52
2023-11-23T02:30:47.972Z,64.52
2023-11-23T02:33:16.368Z,64.67
2023-11-23T02:35:45.398Z,64.85
2023-11-23T02:38:13.696Z,64.79
2023-11-23T02:40:44.001Z,64.87
2023-11-23T02:43:12.680Z,64.89
2023-11-23T02:45:42.420Z,64.74
2023-11-23T02:48:11.183Z,64.69
2023-11-23T02:50:39.422Z,64.79
2023-11-23T02:53:09.926Z,64.71
2023-11-23T02:55:38.486Z,64.66
2023-11-23T02:58:06.951Z,64.61
2023-11-23T03:00:35.870Z,64.83
2023-11-23T03:03:05.053Z,64.94
2023-11-23T03:05:34.371Z,64.94
2023-11-23T03:08:03.975Z,64.75
2023-11-23T03:10:35.152Z,64.68
2023-11-23T03:13:03.709Z,64.75
2023-11-23T03:15:32.285Z,64.89
2023-11-23T03:18:01.177Z,64.97
2023-11-23T03:20:30.697Z,65.10
2023-11-23T03:23:00.252Z,65.11
2023-11-23T03:25:28.791Z,65.30
2023-11-23T03:27:58.500Z,65.25
2023-11-23T03:30:27.035Z,65.14
2023-11-23T03:32:55.521Z,65.19
2023-11-23T03:35:24.377Z,65.03
2023-11-23T03:37:52.867Z,64.71
2023-11-23T03:40:22.038Z,64.72
2023-11-23T03:42:50.719Z,64.86
2023-11-23T03:45:19.420Z,64.86
2023-11-23T03:47:48.604Z,64.81
2023-11-23T03:50:17.613Z,64.96
2023-11-23T03:52:46.299Z,65.17
2023-11-23T03:55:14.518Z,65.34
2023-11-23T03:57:44.887Z,65.11
2023-11-23T04:00:15.224Z,64.93
2023-11-23T04:02:44.552Z,64.93
2023-11-23T04:05:21.200Z,64.94
2023-11-23T04:07:50.713Z,65.04
2023-11-23T04:10:19.360Z,64.86
2023-11-23T04:12:50.431Z,64.98
2023-11-23T04:15:18.854Z,64.92
2023-11-23T04:17:47.395Z,65.04
2023-11-23T04:20:17.102Z,65.27
2023-11-23T04:22:46.415Z,65.36
2023-11-23T04:25:15.026Z,65.55
2023-11-23T04:27:44.409Z,65.45
2023-11-23T04:30:14.055Z,65.64
2023-11-23T04:32:42.712Z,65.81
2023-11-23T04:35:13.043Z,65.99
2023-11-23T04:37:41.445Z,65.81
2023-11-23T04:40:13.373Z,65.89
2023-11-23T04:42:44.382Z,66.16
2023-11-23T04:45:12.867Z,66.30
2023-11-23T04:47:41.615Z,66.45
2023-11-23T04:50:10.504Z,66.54
2023-11-23T04:52:39.054Z,66.89
2023-11-23T04:55:08.537Z,66.99
2023-11-23T04:57:38.170Z,67.14
2023-11-23T05:00:11.304Z,67.29
2023-11-23T05:02:41.967Z,67.53
2023-11-23T05:05:14.411Z,67.65
2023-11-23T05:07:43.685Z,67.68
2023-11-23T05:10:12.507Z,67.82
2023-11-23T05:12:41.217Z,68.01
2023-11-23T05:15:10.182Z,68.28
2023-11-23T05:17:39.915Z,68.60
2023-11-23T05:20:09.808Z,68.79
2023-11-23T05:22:40.213Z,68.94
2023-11-23T05:25:10.418Z,69.12
2023-11-23T05:27:38.782Z,69.44
2023-11-23T05:30:08.347Z,69.80
2023-11-23T05:32:37.463Z,70.02
2023-11-23T05:35:09.709Z,70.17
2023-11-23T05:37:37.905Z,70.41
2023-11-23T05:40:12.890Z,70.44
2023-11-23T05:42:47.665Z,70.48
2023-11-23T05:45:11.930Z,70.44
2023-11-23T05:47:40.839Z,70.59
2023-11-23T05:50:10.471Z,70.56
2023-11-23T05:52:40.023Z,70.57
2023-11-23T05:55:10.872Z,70.65
2023-11-23T05:57:39.763Z,70.70
2023-11-23T06:00:10.063Z,70.78
2023-11-23T06:02:39.858Z,70.88
2023-11-23T06:05:09.414Z,70.82
2023-11-23T06:07:39.128Z,70.75
2023-11-23T06:10:08.913Z,70.90
2023-11-23T06:12:37.613Z,70.95
2023-11-23T06:15:08.911Z,70.95
2023-11-23T06:17:37.465Z,71.02
2023-11-23T06:20:08.929Z,71.06
2023-11-23T06:22:38.696Z,71.21
2023-11-23T06:25:08.428Z,71.23
2023-11-23T06:27:37.014Z,71.22
2023-11-23T06:30:06.623Z,71.25
2023-11-23T06:32:35.526Z,71.19
2023-11-23T06:35:05.679Z,71.21
2023-11-23T06:37:34.009Z,71.24
2023-11-23T06:40:04.094Z,71.23
2023-11-23T06:42:33.954Z,71.36
2023-11-23T06:45:03.956Z,71.31
2023-11-23T06:47:34.378Z,71.09
2023-11-23T06:50:03.180Z,71.08
2023-11-23T06:52:32.653Z,71.12
2023-11-23T06:55:02.294Z,71.14
2023-11-23T06:57:31.325Z,71.30
2023-11-23T07:00:02.792Z,71.25
2023-11-23T07:02:32.832Z,71.32
2023-11-23T07:05:05.230Z,71.40
2023-11-23T07:07:33.836Z,71.31
2023-11-23T07:10:03.257Z,71.31
2023-11-23T07:12:32.659Z,71.25
2023-11-23T07:15:01.744Z,71.26
2023-11-23T07:17:31.239Z,71.19
2023-11-23T07:19:59.937Z,71.16
2023-11-23T07:22:28.520Z,71.09
2023-11-23T07:24:57.514Z,70.85
2023-11-23T07:27:30.793Z,70.85
2023-11-23T07:29:59.580Z,70.79
2023-11-23T07:32:28.048Z,70.70
2023-11-23T07:34:57.115Z,70.58
2023-11-23T07:37:25.741Z,70.62
2023-11-23T07:39:54.426Z,70.26
2023-11-23T07:42:24.718Z,70.09
2023-11-23T07:44:54.002Z,70.13
2023-11-23T07:47:24.338Z,70.09
2023-11-23T07:49:54.209Z,69.90
2023-11-23T07:52:23.177Z,69.86
2023-11-23T07:54:51.696Z,69.75
2023-11-23T07:57:20.791Z,69.85
2023-11-23T07:59:50.019Z,69.77
2023-11-23T08:02:18.616Z,69.90
2023-11-23T08:04:47.386Z,69.76
2023-11-23T08:07:16.024Z,69.71
2023-11-23T08:09:44.735Z,69.63
2023-11-23T08:12:13.913Z,69.47
2023-11-23T08:14:42.505Z,69.41
2023-11-23T08:17:12.869Z,69.40
2023-11-23T08:19:41.762Z,69.24
2023-11-23T08:22:12.312Z,69.39
2023-11-23T08:24:41.160Z,69.16
2023-11-23T08:27:09.698Z,69.35
2023-11-23T08:29:39.348Z,69.08
2023-11-23T08:32:12.817Z,69.11
2023-11-23T08:34:43.941Z,69.13
2023-11-23T08:37:17.530Z,69.11
2023-11-23T08:39:54.866Z,69.28
2023-11-23T08:42:26.711Z,69.23
2023-11-23T08:44:58.314Z,69.19
2023-11-23T08:47:27.492Z,69.16
2023-11-23T08:49:59.067Z,68.95
2023-11-23T08:52:28.984Z,68.86
2023-11-23T08:55:01.215Z,68.65
2023-11-23T08:57:31.079Z,68.54
2023-11-23T09:00:01.893Z,68.50
2023-11-23T09:02:32.993Z,70.45
2023-11-23T09:05:01.987Z,69.82
2023-11-23T09:07:31.553Z,68.70
2023-11-23T09:10:00.332Z,68.45
2023-11-23T09:12:31.489Z,68.48
2023-11-23T09:15:01.757Z,68.12
2023-11-23T09:17:31.677Z,67.65
2023-11-23T09:20:04.867Z,67.45
2023-11-23T09:22:38.203Z,67.41
2023-11-23T09:25:10.107Z,67.44
2023-11-23T09:27:44.757Z,67.61
2023-11-23T09:30:14.233Z,67.59
2023-11-23T09:32:44.147Z,67.47
2023-11-23T09:35:12.628Z,67.07
2023-11-23T09:37:41.203Z,67.16
2023-11-23T09:40:12.321Z,67.14
2023-11-23T09:42:41.040Z,67.01
2023-11-23T09:45:13.531Z,67.07
2023-11-23T09:47:42.176Z,67.14
2023-11-23T09:50:10.733Z,67.11
2023-11-23T09:52:39.860Z,66.90
2023-11-23T09:55:09.244Z,67.06
2023-11-23T09:57:39.052Z,66.85
2023-11-23T10:00:10.354Z,66.85
2023-11-23T10:02:39.191Z,67.06
2023-11-23T10:05:09.980Z,67.24
2023-11-23T10:07:38.719Z,66.96
2023-11-23T10:10:09.519Z,66.78
2023-11-23T10:12:38.614Z,66.42
2023-11-23T10:15:09.778Z,66.36
2023-11-23T10:17:40.640Z,66.58
2023-11-23T10:20:11.311Z,66.80
2023-11-23T10:22:48.618Z,67.01
2023-11-23T10:25:32.101Z,66.45
2023-11-23T10:28:00.942Z,66.58
2023-11-23T10:30:31.653Z,66.76
2023-11-23T10:33:01.274Z,66.83
2023-11-23T10:35:43.007Z,66.85
2023-11-23T10:38:11.946Z,67.10
2023-11-23T10:40:40.591Z,67.17
2023-11-23T10:43:10.066Z,67.32
2023-11-23T10:45:40.148Z,67.38
2023-11-23T10:48:08.974Z,67.42
2023-11-23T10:50:37.666Z,67.37
2023-11-23T10:53:06.737Z,67.37
2023-11-23T10:55:35.738Z,67.02
2023-11-23T10:58:14.452Z,67.01
2023-11-23T11:00:47.702Z,67.32
2023-11-23T11:03:16.495Z,67.36
2023-11-23T11:05:48.179Z,67.19
2023-11-23T11:08:20.932Z,67.30
2023-11-23T11:10:54.691Z,68.57
2023-11-23T11:13:24.601Z,68.37
2023-11-23T11:16:04.424Z,68.79
2023-11-23T11:18:36.135Z,68.38
2023-11-23T11:21:10.293Z,68.03
2023-11-23T11:23:45.518Z,67.93
2023-11-23T11:26:27.408Z,68.05
2023-11-23T11:29:06.658Z,68.45
2023-11-23T11:31:40.988Z,68.78
2023-11-23T11:34:21.856Z,69.27
2023-11-23T11:37:02.494Z,69.47
2023-11-23T11:39:32.878Z,69.49
2023-11-23T11:42:01.693Z,69.92
2023-11-23T11:44:55.418Z,70.14
2023-11-23T11:47:26.373Z,70.40
2023-11-23T11:49:55.305Z,71.24
2023-11-23T11:52:24.770Z,71.92
2023-11-23T11:54:53.117Z,73.17
2023-11-23T11:57:23.734Z,73.74
2023-11-23T11:59:54.029Z,74.00
2023-11-23T12:02:23.416Z,73.93
2023-11-23T12:05:00.013Z,73.46
2023-11-23T12:07:28.407Z,73.24
2023-11-23T12:09:57.001Z,72.98
2023-11-23T12:12:29.174Z,72.73
2023-11-23T12:14:58.690Z,72.59
2023-11-23T12:17:27.406Z,72.56
2023-11-23T12:19:57.254Z,72.68
2023-11-23T12:22:28.978Z,72.76
2023-11-23T12:27:46.634Z,72.93
2023-11-23T12:30:16.804Z,72.99
2023-11-23T12:32:45.659Z,73.16
2023-11-23T12:35:14.523Z,73.14
2023-11-23T12:37:43.355Z,73.12
2023-11-23T12:40:13.098Z,73.55
2023-11-23T12:42:42.007Z,73.64
2023-11-23T12:45:11.272Z,73.69
2023-11-23T12:47:44.647Z,73.79
2023-11-23T12:50:13.153Z,73.85
2023-11-23T12:52:41.532Z,74.02
2023-11-23T12:55:11.304Z,74.22
2023-11-23T12:57:40.219Z,74.26
2023-11-23T13:00:16.409Z,74.42
2023-11-23T13:02:45.035Z,74.42
2023-11-23T13:05:14.080Z,74.60
2023-11-23T13:07:42.876Z,75.00
2023-11-23T13:10:12.194Z,75.30
2023-11-23T13:12:40.841Z,75.59
2023-11-23T13:15:12.814Z,75.48
2023-11-23T13:17:44.050Z,75.53
2023-11-23T13:20:15.053Z,75.85
2023-11-23T13:22:44.751Z,76.12
2023-11-23T13:25:15.418Z,76.56
2023-11-23T13:27:44.184Z,77.08
2023-11-23T13:30:15.593Z,77.54
2023-11-23T13:32:46.461Z,78.23
2023-11-23T13:35:16.132Z,79.04
2023-11-23T13:37:46.184Z,79.94
2023-11-23T13:40:15.987Z,80.10
